Time;durP1;ratioP1;P1;durP2;ratioP2;P2;SDS_P1;SDS_P2;PMS_P1;PMS_P2;Temp;Humidity;BMP_temperature;BMP_pressure;BME280_temperature;BME280_humidity;BME280_pressure;Samples;Min_cycle;Max_cycle;Signal;HPM_P1;HPM_P2
2021/06/20 00:01:44;;;;;;;17.23;7.30;;;23.40;80.50;;;;;;5001055;28;20026;-77
2021/06/20 00:04:10;;;;;;;12.25;6.93;;;23.40;80.40;;;;;;4978143;28;20392;-77
2021/06/20 00:06:38;;;;;;;7.95;4.40;;;23.40;80.40;;;;;;4994001;28;20030;-76
2021/06/20 00:09:06;;;;;;;14.07;6.55;;;23.40;80.10;;;;;;4993464;28;20080;-76
2021/06/20 00:11:33;;;;;;;14.05;10.68;;;23.40;80.10;;;;;;4993589;28;20077;-76
2021/06/20 00:13:59;;;;;;;14.55;9.43;;;23.40;80.10;;;;;;4975934;28;20473;-75
2021/06/20 00:16:25;;;;;;;12.68;7.15;;;23.40;80.00;;;;;;4976431;28;20061;-75
2021/06/20 00:18:51;;;;;;;15.40;8.77;;;23.40;79.70;;;;;;5013434;28;20025;-76
2021/06/20 00:21:18;;;;;;;12.80;9.27;;;23.40;79.60;;;;;;4985809;28;20030;-76
2021/06/20 00:23:45;;;;;;;12.00;9.30;;;23.40;79.70;;;;;;4993035;28;20029;-77
2021/06/20 00:26:10;;;;;;;10.88;7.15;;;23.40;79.40;;;;;;4979188;28;20383;-76
2021/06/20 00:28:37;;;;;;;11.50;7.00;;;23.40;79.40;;;;;;4996888;28;20095;-75
2021/06/20 00:31:03;;;;;;;14.70;7.07;;;23.40;79.20;;;;;;4979316;28;20033;-75
2021/06/20 00:33:29;;;;;;;9.63;6.10;;;23.40;79.20;;;;;;4996191;28;20026;-76
2021/06/20 00:35:55;;;;;;;12.52;4.88;;;23.40;79.10;;;;;;4996853;28;20038;-73
2021/06/20 00:38:21;;;;;;;13.48;6.47;;;23.30;78.50;;;;;;4991976;28;20030;-75
2021/06/20 00:40:47;;;;;;;14.48;7.82;;;23.30;78.60;;;;;;4996974;28;20029;-75
2021/06/20 00:43:13;;;;;;;11.27;8.00;;;23.30;78.60;;;;;;4979118;28;20033;-74
2021/06/20 00:45:39;;;;;;;11.43;7.47;;;23.30;78.30;;;;;;4996229;28;20492;-75
2021/06/20 00:48:06;;;;;;;13.57;6.50;;;23.30;78.10;;;;;;4978606;28;20031;-74
2021/06/20 00:50:31;;;;;;;10.00;5.80;;;23.30;78.10;;;;;;4978838;28;20023;-74
2021/06/20 00:52:59;;;;;;;8.82;4.72;;;23.30;78.20;;;;;;4996930;28;20049;-76
2021/06/20 00:55:30;;;;;;;5.13;2.47;;;23.30;78.30;;;;;;4978839;28;20045;-74
2021/06/20 00:57:59;;;;;;;5.85;2.50;;;23.20;77.90;;;;;;4978991;28;20093;-76
2021/06/20 01:00:25;;;;;;;7.15;2.30;;;23.20;77.60;;;;;;4997155;28;20109;-77
2021/06/20 01:02:51;;;;;;;4.85;2.45;;;23.20;77.50;;;;;;4980554;28;20084;-77
2021/06/20 01:05:17;;;;;;;8.55;2.40;;;23.20;77.60;;;;;;4979731;28;20415;-76
2021/06/20 01:07:43;;;;;;;8.00;4.60;;;23.20;77.70;;;;;;4996050;28;20073;-76
2021/06/20 01:10:10;;;;;;;8.23;3.42;;;23.20;77.50;;;;;;4980300;28;20030;-76
2021/06/20 01:12:38;;;;;;;7.45;2.55;;;23.20;77.50;;;;;;4981233;28;20134;-76
2021/06/20 01:15:07;;;;;;;7.65;5.07;;;23.20;77.50;;;;;;5009749;28;20037;-76
2021/06/20 01:17:33;;;;;;;9.88;8.57;;;23.20;77.80;;;;;;4995871;28;20487;-73
2021/06/20 01:19:59;;;;;;;12.55;8.82;;;23.10;78.00;;;;;;4981026;28;20058;-77
2021/06/20 01:22:29;;;;;;;11.38;7.47;;;23.10;77.80;;;;;;4990362;28;20460;-72
2021/06/20 01:25:16;;;;;;;7.70;4.55;;;23.00;78.00;;;;;;4996686;28;20084;-71
2021/06/20 01:27:51;;;;;;;8.10;3.63;;;23.00;78.10;;;;;;5016606;28;20045;-72
2021/06/20 01:30:24;;;;;;;13.68;8.05;;;23.00;78.10;;;;;;4984366;28;20021;-73
2021/06/20 01:32:50;;;;;;;12.27;4.95;;;22.90;78.00;;;;;;5017660;28;20096;-74
2021/06/20 01:35:16;;;;;;;21.45;14.25;;;22.90;77.90;;;;;;5010854;28;20107;-76
2021/06/20 01:37:42;;;;;;;6.50;4.25;;;22.90;78.00;;;;;;4996275;28;20033;-75
2021/06/20 01:40:10;;;;;;;14.00;4.20;;;22.90;78.00;;;;;;5008021;28;20114;-77
2021/06/20 01:42:39;;;;;;;9.77;3.20;;;23.00;78.10;;;;;;4986316;28;20494;-70
2021/06/20 01:45:08;;;;;;;16.52;12.35;;;23.00;78.00;;;;;;4986057;28;20034;-73
2021/06/20 01:47:34;;;;;;;16.85;13.38;;;23.00;77.60;;;;;;4999253;28;20460;-72
2021/06/20 01:50:02;;;;;;;11.75;10.35;;;23.00;77.40;;;;;;4994354;28;20025;-73
2021/06/20 01:52:28;;;;;;;9.60;6.75;;;23.00;76.90;;;;;;5002817;28;20057;-73
2021/06/20 01:54:55;;;;;;;14.20;7.72;;;23.00;76.40;;;;;;5000882;28;20132;-73
2021/06/20 01:57:27;;;;;;;9.32;4.60;;;23.00;76.30;;;;;;4994964;28;20033;-73
2021/06/20 01:59:55;;;;;;;9.88;5.70;;;23.00;76.00;;;;;;4995121;28;20026;-72
2021/06/20 02:02:22;;;;;;;12.18;5.72;;;23.00;76.00;;;;;;4993647;28;20037;-73
2021/06/20 02:04:50;;;;;;;8.55;5.57;;;23.00;76.30;;;;;;4994878;28;20034;-72
2021/06/20 02:07:16;;;;;;;7.55;3.67;;;23.00;76.60;;;;;;4977368;28;20155;-74
2021/06/20 02:09:42;;;;;;;13.85;4.60;;;22.90;76.20;;;;;;4995117;28;20054;-73
2021/06/20 02:12:09;;;;;;;8.07;5.35;;;22.90;76.00;;;;;;4994628;28;20047;-74
2021/06/20 02:14:36;;;;;;;12.48;10.40;;;22.90;76.10;;;;;;4977451;28;20041;-74
2021/06/20 02:17:23;;;;;;;18.63;13.98;;;22.90;76.30;;;;;;4995037;28;20027;-74
2021/06/20 02:19:52;;;;;;;16.15;12.55;;;22.90;75.70;;;;;;4978779;28;20370;-72
2021/06/20 02:22:18;;;;;;;14.30;9.02;;;23.00;75.80;;;;;;4994613;28;20101;-73
2021/06/20 02:24:43;;;;;;;5.38;3.30;;;23.00;75.70;;;;;;4994478;28;20026;-73
2021/06/20 02:27:12;;;;;;;7.72;3.80;;;23.00;74.80;;;;;;4994437;28;20026;-73
2021/06/20 02:29:39;;;;;;;17.88;11.75;;;23.00;74.40;;;;;;4994618;28;20074;-74
2021/06/20 02:32:05;;;;;;;10.48;6.28;;;23.10;74.20;;;;;;4976718;28;20436;-73
2021/06/20 02:34:31;;;;;;;7.47;2.20;;;23.20;73.70;;;;;;4994719;28;20042;-73
2021/06/20 02:36:57;;;;;;;7.05;2.80;;;23.20;73.20;;;;;;4994456;28;20034;-73
2021/06/20 02:39:22;;;;;;;7.13;3.33;;;23.30;73.40;;;;;;4977273;28;20030;-74
2021/06/20 02:41:50;;;;;;;8.65;3.90;;;23.30;73.50;;;;;;4994317;28;20027;-74
2021/06/20 02:44:17;;;;;;;7.95;3.83;;;23.30;73.00;;;;;;4993489;28;20030;-75
2021/06/20 02:46:43;;;;;;;10.43;6.35;;;23.40;72.60;;;;;;4994694;28;20018;-74
2021/06/20 02:49:12;;;;;;;6.75;3.75;;;23.40;72.60;;;;;;4993846;28;20030;-73
2021/06/20 02:51:40;;;;;;;9.90;4.45;;;23.50;71.90;;;;;;4993520;28;20077;-74
2021/06/20 02:54:06;;;;;;;8.07;5.20;;;23.50;71.50;;;;;;4977387;28;20030;-74
2021/06/20 02:56:32;;;;;;;9.35;3.50;;;23.50;71.40;;;;;;4996071;28;20460;-74
2021/06/20 02:58:57;;;;;;;10.05;3.92;;;23.50;71.30;;;;;;4984657;28;20134;-74
2021/06/20 03:01:23;;;;;;;5.20;3.40;;;23.60;71.20;;;;;;4976725;28;20548;-74
2021/06/20 03:03:49;;;;;;;6.53;4.53;;;23.60;70.90;;;;;;4994645;28;20417;-72
2021/06/20 03:06:15;;;;;;;13.73;6.78;;;23.60;70.80;;;;;;4994325;28;20441;-70
2021/06/20 03:08:41;;;;;;;8.60;5.85;;;23.60;70.70;;;;;;4976958;28;20042;-71
2021/06/20 03:11:06;;;;;;;7.82;3.25;;;23.70;70.20;;;;;;4994868;28;20055;-74
2021/06/20 03:13:32;;;;;;;5.40;2.60;;;23.70;69.90;;;;;;5003666;28;20029;-73
2021/06/20 03:15:58;;;;;;;7.72;3.00;;;23.70;69.70;;;;;;5011798;28;20052;-72
2021/06/20 03:18:23;;;;;;;6.78;2.33;;;23.80;69.40;;;;;;5003802;28;20420;-73
2021/06/20 03:20:49;;;;;;;4.90;2.72;;;23.80;69.00;;;;;;4999400;28;20468;-73
2021/06/20 03:23:15;;;;;;;7.25;3.30;;;23.70;69.00;;;;;;5006059;28;20054;-73
2021/06/20 03:25:41;;;;;;;8.02;4.85;;;23.70;68.70;;;;;;4980575;28;20387;-76
2021/06/20 03:28:08;;;;;;;5.13;4.05;;;23.70;68.70;;;;;;4995382;28;20045;-72
2021/06/20 03:30:35;;;;;;;7.05;4.07;;;23.70;68.70;;;;;;4992169;28;20023;-73
2021/06/20 03:33:01;;;;;;;7.55;2.88;;;23.70;68.90;;;;;;4981965;28;20038;-73
2021/06/20 03:35:27;;;;;;;6.80;3.10;;;23.80;68.90;;;;;;4989454;28;20046;-73
2021/06/20 03:37:53;;;;;;;7.78;2.83;;;23.90;68.70;;;;;;4983684;28;20146;-74
2021/06/20 03:40:19;;;;;;;7.53;4.55;;;23.90;68.60;;;;;;4991198;28;20114;-72
2021/06/20 03:42:45;;;;;;;9.15;4.75;;;24.00;68.90;;;;;;4997568;28;20065;-74
2021/06/20 03:45:11;;;;;;;7.63;3.80;;;24.10;69.00;;;;;;4996409;28;20072;-72
2021/06/20 03:47:37;;;;;;;9.13;3.40;;;24.20;68.50;;;;;;4993431;28;20085;-73
2021/06/20 03:50:05;;;;;;;8.60;3.85;;;24.10;68.10;;;;;;4993461;28;20030;-71
2021/06/20 03:52:30;;;;;;;15.55;3.70;;;24.20;68.20;;;;;;4986217;28;20049;-73
2021/06/20 03:54:57;;;;;;;8.32;4.18;;;24.00;67.60;;;;;;4994271;28;20507;-74
2021/06/20 03:57:23;;;;;;;13.88;4.70;;;24.00;67.80;;;;;;5003983;28;20423;-80
2021/06/20 03:59:49;;;;;;;12.60;5.28;;;23.90;68.20;;;;;;4993364;28;20037;-74
2021/06/20 04:02:15;;;;;;;14.27;5.05;;;23.90;68.60;;;;;;4988757;28;20488;-74
2021/06/20 04:04:42;;;;;;;10.52;5.07;;;23.90;68.40;;;;;;4983871;28;20034;-73
2021/06/20 04:07:11;;;;;;;10.95;3.35;;;23.90;68.10;;;;;;4980048;28;20129;-70
2021/06/20 04:09:38;;;;;;;13.73;5.90;;;23.80;68.00;;;;;;4999345;28;20022;-71
2021/06/20 04:12:04;;;;;;;33.90;24.13;;;23.80;68.10;;;;;;5000294;28;20052;-76
2021/06/20 04:14:30;;;;;;;12.05;5.75;;;23.80;68.30;;;;;;5003633;28;20046;-75
2021/06/20 04:16:56;;;;;;;11.82;4.70;;;23.90;68.00;;;;;;5000125;28;20556;-78
2021/06/20 04:19:22;;;;;;;14.20;5.28;;;24.00;68.00;;;;;;4989180;28;20117;-74
2021/06/20 04:21:47;;;;;;;14.50;5.85;;;24.20;67.60;;;;;;4984230;28;20480;-73
2021/06/20 04:24:13;;;;;;;10.63;4.50;;;24.40;67.50;;;;;;5011699;28;20027;-75
2021/06/20 04:26:41;;;;;;;13.07;5.13;;;24.80;66.80;;;;;;5004193;28;20026;-76
2021/06/20 04:29:08;;;;;;;6.18;2.85;;;25.20;65.80;;;;;;5002700;28;20025;-74
2021/06/20 04:31:33;;;;;;;5.07;2.20;;;25.60;64.60;;;;;;4982951;28;20038;-76
2021/06/20 04:33:59;;;;;;;9.15;2.20;;;26.00;63.70;;;;;;5006459;28;20026;-75
2021/06/20 04:36:25;;;;;;;8.93;3.97;;;26.40;63.20;;;;;;4988554;28;20515;-73
2021/06/20 04:38:50;;;;;;;6.45;2.47;;;26.80;62.30;;;;;;5005898;28;20484;-69
2021/06/20 04:41:18;;;;;;;5.40;1.95;;;27.20;61.10;;;;;;4980223;28;20101;-72
2021/06/20 04:46:32;;;;;;;5.50;1.88;;;27.60;58.90;;;;;;5015946;28;20034;-73
2021/06/20 04:49:07;;;;;;;6.57;2.10;;;27.80;58.40;;;;;;5001465;28;20033;-71
2021/06/20 04:51:35;;;;;;;5.88;1.90;;;28.00;58.30;;;;;;5022064;28;20045;-68
2021/06/20 04:54:01;;;;;;;3.05;1.60;;;28.30;57.40;;;;;;4994688;28;20057;-70
2021/06/20 04:56:28;;;;;;;5.65;1.80;;;28.20;56.20;;;;;;4997664;28;20025;-71
2021/06/20 04:58:56;;;;;;;8.23;2.03;;;28.20;56.60;;;;;;5006072;28;20030;-70
2021/06/20 05:01:22;;;;;;;6.00;1.88;;;28.40;56.20;;;;;;5000551;28;20117;-71
2021/06/20 05:03:49;;;;;;;6.55;1.85;;;28.70;55.80;;;;;;4983064;28;20034;-70
2021/06/20 05:06:15;;;;;;;3.70;1.38;;;29.00;55.00;;;;;;4994976;28;20029;-71
2021/06/20 05:08:41;;;;;;;7.72;1.35;;;29.10;54.50;;;;;;4978794;28;20030;-70
2021/06/20 05:11:06;;;;;;;3.53;1.65;;;29.30;54.10;;;;;;4977111;28;20054;-75
2021/06/20 05:13:32;;;;;;;4.50;1.40;;;29.50;53.20;;;;;;4976585;28;20106;-77
2021/06/20 05:15:58;;;;;;;8.38;1.60;;;29.50;52.40;;;;;;4993201;28;20396;-71
2021/06/20 05:18:24;;;;;;;7.53;1.48;;;29.40;52.40;;;;;;4994040;28;20065;-72
2021/06/20 05:20:50;;;;;;;3.50;1.50;;;29.50;53.00;;;;;;4994517;28;20042;-72
2021/06/20 05:23:16;;;;;;;8.95;2.05;;;29.70;53.60;;;;;;4994462;28;20026;-73
2021/06/20 05:25:42;;;;;;;6.22;1.63;;;29.70;52.00;;;;;;4978011;28;20058;-72
2021/06/20 05:28:08;;;;;;;8.10;1.50;;;29.80;51.80;;;;;;4978253;28;20027;-71
2021/06/20 05:30:34;;;;;;;4.47;1.60;;;29.90;51.60;;;;;;4995959;28;20019;-74
2021/06/20 05:32:59;;;;;;;7.35;1.92;;;30.00;51.40;;;;;;4995516;28;20507;-71
2021/06/20 05:35:25;;;;;;;4.25;1.60;;;30.10;51.50;;;;;;4977940;28;20129;-72
2021/06/20 05:37:51;;;;;;;5.18;1.40;;;30.20;51.30;;;;;;4978319;28;20035;-70
2021/06/20 05:40:17;;;;;;;7.10;1.83;;;30.30;50.90;;;;;;4995321;28;20417;-70
2021/06/20 05:42:42;;;;;;;6.72;1.90;;;30.30;51.10;;;;;;5002354;28;20022;-70
2021/06/20 05:45:09;;;;;;;4.32;1.38;;;30.30;50.70;;;;;;5002219;28;20384;-76
2021/06/20 05:47:35;;;;;;;4.07;1.30;;;30.50;50.80;;;;;;4977610;28;20049;-70
2021/06/20 05:50:00;;;;;;;8.65;3.10;;;30.50;50.10;;;;;;4993924;28;20539;-73
2021/06/20 05:52:26;;;;;;;8.23;2.60;;;30.50;50.20;;;;;;4994987;28;20037;-72
2021/06/20 05:54:52;;;;;;;5.35;1.80;;;30.60;50.10;;;;;;4977912;28;20038;-72
2021/06/20 05:57:19;;;;;;;4.53;1.50;;;30.60;50.00;;;;;;4995087;28;20027;-72
2021/06/20 05:59:46;;;;;;;4.85;1.60;;;30.50;49.90;;;;;;4995013;28;20030;-72
2021/06/20 06:02:11;;;;;;;8.35;3.45;;;30.40;49.70;;;;;;4977528;28;20362;-72
2021/06/20 06:04:38;;;;;;;8.95;3.55;;;30.50;50.50;;;;;;4993504;28;20036;-72
2021/06/20 06:07:04;;;;;;;11.90;3.67;;;30.70;50.30;;;;;;4995297;28;20030;-73
2021/06/20 06:09:30;;;;;;;6.32;2.15;;;30.80;50.00;;;;;;4994978;28;20023;-72
2021/06/20 06:11:56;;;;;;;7.05;2.00;;;30.90;49.80;;;;;;4994572;28;20054;-72
2021/06/20 06:14:23;;;;;;;10.20;3.05;;;30.60;49.30;;;;;;4977568;28;20026;-73
2021/06/20 06:16:50;;;;;;;6.68;2.53;;;30.10;49.50;;;;;;4981459;28;20033;-73
2021/06/20 06:19:16;;;;;;;5.82;2.13;;;29.80;49.80;;;;;;5004014;28;20030;-71
2021/06/20 06:21:43;;;;;;;9.38;2.35;;;29.40;50.20;;;;;;4995078;28;20086;-72
2021/06/20 06:24:09;;;;;;;4.25;2.30;;;29.30;51.00;;;;;;4994954;28;20178;-71
2021/06/20 06:26:35;;;;;;;13.52;3.10;;;29.60;51.50;;;;;;4986147;28;20034;-71
2021/06/20 06:29:01;;;;;;;6.30;2.72;;;30.00;51.40;;;;;;5004866;28;20026;-71
2021/06/20 06:31:26;;;;;;;4.07;1.88;;;30.50;51.10;;;;;;4996292;28;20072;-72
2021/06/20 06:33:52;;;;;;;6.95;2.63;;;31.00;49.50;;;;;;4996005;28;20018;-72
2021/06/20 06:36:19;;;;;;;9.82;5.13;;;31.10;48.80;;;;;;4995524;28;20042;-71
2021/06/20 06:38:45;;;;;;;13.93;7.53;;;31.30;48.70;;;;;;4993170;28;20037;-72
2021/06/20 06:41:12;;;;;;;11.65;6.55;;;31.70;49.20;;;;;;4994696;28;20026;-72
2021/06/20 06:43:38;;;;;;;8.93;5.47;;;32.10;49.30;;;;;;4992957;28;20030;-72
2021/06/20 06:46:03;;;;;;;15.23;5.28;;;32.50;48.50;;;;;;4976553;28;20034;-72
2021/06/20 06:48:29;;;;;;;6.40;3.72;;;32.90;47.90;;;;;;4976653;28;20031;-71
2021/06/20 06:50:55;;;;;;;12.70;4.00;;;33.20;47.50;;;;;;4994015;28;20169;-73
2021/06/20 06:53:20;;;;;;;9.10;3.83;;;33.50;48.00;;;;;;4994235;28;20108;-72
2021/06/20 06:55:46;;;;;;;8.52;4.03;;;33.90;47.50;;;;;;4994125;28;20034;-71
2021/06/20 06:58:12;;;;;;;6.85;3.63;;;34.20;46.70;;;;;;4994081;28;20184;-70
2021/06/20 07:00:38;;;;;;;10.82;5.95;;;34.30;46.90;;;;;;4994134;28;20524;-72
2021/06/20 07:03:04;;;;;;;12.52;5.88;;;34.40;46.30;;;;;;4976321;28;20168;-72
2021/06/20 07:05:30;;;;;;;12.73;10.10;;;34.50;46.50;;;;;;4977090;28;20030;-74
2021/06/20 07:07:56;;;;;;;15.20;12.82;;;34.70;46.00;;;;;;4977373;28;20030;-77
2021/06/20 07:10:22;;;;;;;11.55;8.73;;;34.80;45.20;;;;;;4994403;28;20022;-74
2021/06/20 07:12:48;;;;;;;13.90;8.32;;;34.80;45.40;;;;;;4978265;28;20054;-72
2021/06/20 07:15:15;;;;;;;12.32;8.55;;;34.60;44.80;;;;;;5002535;28;20036;-73
2021/06/20 07:17:40;;;;;;;14.73;11.50;;;34.40;45.80;;;;;;4995946;28;20353;-77
2021/06/20 07:20:11;;;;;;;13.48;8.02;;;34.50;45.40;;;;;;4993770;28;20022;-72
2021/06/20 07:22:37;;;;;;;10.35;5.85;;;34.50;45.00;;;;;;4994333;28;20027;-76
2021/06/20 07:25:04;;;;;;;10.07;5.40;;;34.70;45.30;;;;;;4976352;28;20030;-71
2021/06/20 07:27:30;;;;;;;8.00;3.97;;;34.80;45.00;;;;;;4976394;28;20033;-70
2021/06/20 07:29:55;;;;;;;10.15;2.58;;;34.80;44.40;;;;;;4998177;28;20030;-70
2021/06/20 07:32:21;;;;;;;8.25;2.90;;;35.00;44.70;;;;;;4982245;28;20404;-78
2021/06/20 07:34:51;;;;;;;13.57;3.35;;;35.20;44.50;;;;;;4982684;28;20100;-77
2021/06/20 07:37:16;;;;;;;7.35;2.42;;;35.30;44.60;;;;;;4999991;28;20045;-72
2021/06/20 07:39:42;;;;;;;6.72;2.22;;;35.40;44.50;;;;;;4998914;28;20050;-71
2021/06/20 07:42:08;;;;;;;7.22;1.88;;;35.50;44.40;;;;;;4999951;28;20022;-76
2021/06/20 07:44:34;;;;;;;10.73;2.25;;;35.60;44.20;;;;;;4999015;28;20113;-74
2021/06/20 07:46:59;;;;;;;9.57;2.20;;;35.70;44.00;;;;;;4988568;28;20412;-74
2021/06/20 07:49:25;;;;;;;9.68;2.90;;;35.90;43.80;;;;;;4983239;28;20037;-73
2021/06/20 07:51:51;;;;;;;10.93;2.60;;;36.00;42.60;;;;;;4983140;28;20034;-72
2021/06/20 07:54:16;;;;;;;15.43;9.80;;;36.00;43.20;;;;;;4999529;28;20018;-72
2021/06/20 07:56:42;;;;;;;15.20;11.23;;;36.00;42.70;;;;;;5000275;28;20100;-72
2021/06/20 07:59:08;;;;;;;16.35;10.35;;;35.90;42.60;;;;;;5007437;28;20030;-72
2021/06/20 08:01:34;;;;;;;17.75;9.65;;;35.80;43.50;;;;;;5001995;28;20029;-72
2021/06/20 08:03:59;;;;;;;15.73;8.50;;;35.80;43.70;;;;;;4987566;28;20501;-73
2021/06/20 08:06:25;;;;;;;11.13;7.70;;;35.70;43.40;;;;;;5005663;28;20048;-72
2021/06/20 08:08:56;;;;;;;12.90;8.80;;;35.70;43.10;;;;;;4989643;28;20026;-73
2021/06/20 08:11:23;;;;;;;10.63;4.70;;;35.60;43.30;;;;;;5008214;28;20054;-74
2021/06/20 08:13:49;;;;;;;11.48;6.15;;;35.50;44.00;;;;;;5002058;28;20487;-72
2021/06/20 08:16:16;;;;;;;13.07;6.22;;;35.60;44.40;;;;;;4982263;28;20072;-72
2021/06/20 08:18:41;;;;;;;12.48;4.18;;;35.70;44.60;;;;;;4999764;28;20025;-72
2021/06/20 08:21:07;;;;;;;5.68;2.75;;;35.70;43.30;;;;;;4999787;28;20022;-72
2021/06/20 08:23:32;;;;;;;8.27;2.38;;;35.40;42.90;;;;;;4999868;28;20046;-72
2021/06/20 08:25:58;;;;;;;11.32;3.47;;;35.00;42.80;;;;;;4999878;28;20117;-72
2021/06/20 08:28:24;;;;;;;12.90;6.90;;;34.60;43.50;;;;;;4999297;28;20461;-73
2021/06/20 08:30:50;;;;;;;10.40;4.32;;;34.30;44.50;;;;;;4998769;28;20030;-72
2021/06/20 08:33:16;;;;;;;20.40;14.73;;;34.30;44.90;;;;;;4999994;28;20038;-73
2021/06/20 08:35:41;;;;;;;11.63;4.10;;;34.10;44.40;;;;;;4999437;28;20030;-71
2021/06/20 08:38:07;;;;;;;11.80;5.32;;;34.10;43.90;;;;;;4999784;28;20122;-72
2021/06/20 08:40:33;;;;;;;11.15;5.70;;;33.80;44.10;;;;;;4979861;28;20550;-71
2021/06/20 08:42:59;;;;;;;12.13;4.57;;;33.30;45.20;;;;;;4979101;28;20023;-71
2021/06/20 08:45:25;;;;;;;13.93;3.55;;;32.90;45.60;;;;;;4979056;28;20034;-71
2021/06/20 08:47:52;;;;;;;7.38;3.58;;;32.80;45.90;;;;;;4996278;28;20022;-75
2021/06/20 08:50:18;;;;;;;12.30;2.67;;;32.70;46.40;;;;;;4996534;28;20033;-70
2021/06/20 08:52:45;;;;;;;7.13;2.40;;;32.80;46.50;;;;;;4996280;28;20022;-73
2021/06/20 08:55:12;;;;;;;22.08;11.05;;;33.00;46.70;;;;;;4996389;28;20077;-73
2021/06/20 08:57:43;;;;;;;11.88;5.88;;;33.40;46.60;;;;;;4994761;28;20468;-69
2021/06/20 09:00:18;;;;;;;11.13;3.17;;;33.70;46.00;;;;;;4996575;28;20133;-72
2021/06/20 09:02:55;;;;;;;10.40;3.22;;;34.00;45.90;;;;;;4978911;28;20026;-73
2021/06/20 09:05:20;;;;;;;6.15;2.65;;;34.20;45.60;;;;;;4978792;28;20062;-75
2021/06/20 09:07:46;;;;;;;8.68;3.42;;;34.10;46.40;;;;;;4996165;28;20070;-72
2021/06/20 09:10:16;;;;;;;10.02;3.83;;;34.30;47.20;;;;;;4978039;28;20030;-72
2021/06/20 09:12:50;;;;;;;7.85;3.03;;;34.40;46.00;;;;;;4996044;28;20051;-70
2021/06/20 09:15:25;;;;;;;8.50;3.17;;;33.90;45.80;;;;;;4995934;28;20035;-70
2021/06/20 09:17:55;;;;;;;6.15;2.53;;;33.20;46.50;;;;;;4978637;28;20053;-71
2021/06/20 09:20:42;;;;;;;8.60;2.60;;;32.70;47.20;;;;;;4978195;28;20035;-72
2021/06/20 09:23:16;;;;;;;12.90;2.60;;;32.40;48.00;;;;;;4978562;28;20066;-70
2021/06/20 09:25:43;;;;;;;;;;;32.30;47.90;;;;;;4978719;28;20034;-72
2021/06/20 09:28:10;;;;;;;14.75;5.30;;;32.10;47.80;;;;;;4994336;28;19913;-72
2021/06/20 09:30:51;;;;;;;14.10;9.00;;;31.70;48.30;;;;;;4995549;28;20029;-72
2021/06/20 09:33:17;;;;;;;7.82;3.90;;;31.40;49.10;;;;;;4995899;28;20445;-70
2021/06/20 09:35:48;;;;;;;7.22;2.70;;;31.00;49.70;;;;;;4978380;28;20035;-69
2021/06/20 09:38:24;;;;;;;10.95;5.38;;;31.20;50.60;;;;;;4978928;28;20037;-71
2021/06/20 09:41:03;;;;;;;11.27;6.55;;;31.90;50.10;;;;;;4985239;28;20029;-71
2021/06/20 09:43:30;;;;;;;10.07;5.55;;;32.60;49.30;;;;;;5002802;28;20117;-73
2021/06/20 09:45:56;;;;;;;8.63;4.25;;;33.20;49.00;;;;;;4996143;28;20373;-72
2021/06/20 09:48:34;;;;;;;9.45;3.60;;;33.70;48.40;;;;;;4996046;28;20054;-72
2021/06/20 09:51:21;;;;;;;7.22;3.53;;;33.80;47.00;;;;;;5009296;28;20030;-69
2021/06/20 09:53:49;;;;;;;9.23;4.50;;;34.00;46.60;;;;;;4977492;28;20030;-72
2021/06/20 09:56:28;;;;;;;9.38;5.30;;;34.00;46.20;;;;;;4977544;28;20040;-73
2021/06/20 09:58:58;;;;;;;8.48;4.18;;;34.00;46.00;;;;;;4977702;28;20026;-71
2021/06/20 10:01:26;;;;;;;9.35;3.75;;;34.00;45.90;;;;;;4977730;28;20019;-72
2021/06/20 10:03:52;;;;;;;11.18;3.42;;;33.90;46.40;;;;;;4977766;28;20396;-72
2021/06/20 10:06:18;;;;;;;8.48;4.00;;;33.80;46.90;;;;;;4977303;28;20033;-72
2021/06/20 10:08:44;;;;;;;10.80;4.40;;;33.80;47.00;;;;;;4995192;28;20479;-73
2021/06/20 10:11:11;;;;;;;8.65;5.45;;;33.80;47.00;;;;;;4977247;28;20046;-72
2021/06/20 10:13:38;;;;;;;7.03;5.18;;;33.90;47.40;;;;;;4993662;28;20029;-73
2021/06/20 10:16:18;;;;;;;13.02;8.20;;;34.10;48.20;;;;;;4994705;28;20073;-73
2021/06/20 10:19:00;;;;;;;14.20;10.40;;;34.40;47.80;;;;;;4995073;28;20026;-72
2021/06/20 10:21:38;;;;;;;15.20;9.13;;;34.90;48.10;;;;;;4977681;28;20030;-73
2021/06/20 10:24:09;;;;;;;18.70;16.70;;;35.30;46.80;;;;;;4993272;28;20030;-73
2021/06/20 10:26:36;;;;;;;13.38;9.10;;;35.50;46.60;;;;;;4982916;28;20539;-70
2021/06/20 10:29:14;;;;;;;11.35;5.18;;;35.70;46.40;;;;;;4994697;28;20467;-75
2021/06/20 10:31:39;;;;;;;9.93;3.95;;;35.70;46.00;;;;;;4994796;28;20041;-73
2021/06/20 10:34:29;;;;;;;5.15;2.95;;;35.60;44.60;;;;;;4994484;28;20461;-72
2021/06/20 10:37:02;;;;;;;7.20;2.75;;;35.10;44.50;;;;;;4994410;28;20490;-72
2021/06/20 10:39:28;;;;;;;4.47;2.55;;;34.80;45.10;;;;;;4994499;28;20464;-72
2021/06/20 10:42:04;;;;;;;8.45;2.10;;;34.50;45.60;;;;;;4976586;28;20064;-72
2021/06/20 10:44:43;;;;;;;5.07;1.83;;;34.50;45.50;;;;;;4976923;28;20030;-73
2021/06/20 10:47:09;;;;;;;6.07;1.95;;;34.40;45.90;;;;;;4994392;28;20035;-69
2021/06/20 10:49:36;;;;;;;10.90;2.30;;;34.30;46.40;;;;;;4993188;28;20057;-70
2021/06/20 10:52:14;;;;;;;6.63;2.25;;;34.20;46.50;;;;;;4982376;28;20077;-70
2021/06/20 10:54:40;;;;;;;5.85;1.83;;;34.20;46.50;;;;;;4994541;28;20022;-73
2021/06/20 10:57:06;;;;;;;6.50;2.22;;;34.30;45.50;;;;;;4994228;28;20061;-72
2021/06/20 10:59:32;;;;;;;6.63;1.70;;;33.90;45.60;;;;;;4993925;28;20030;-72
2021/06/20 11:02:00;;;;;;;8.77;3.08;;;33.70;45.90;;;;;;4976615;28;20026;-72
2021/06/20 11:04:28;;;;;;;6.28;3.72;;;33.20;45.30;;;;;;4976093;28;20026;-72
2021/06/20 11:06:54;;;;;;;4.18;1.00;;;32.40;45.60;;;;;;4994006;28;20068;-71
2021/06/20 11:09:22;;;;;;;3.30;1.30;;;31.80;46.00;;;;;;4977381;28;20109;-70
2021/06/20 11:11:51;;;;;;;4.97;1.48;;;31.30;46.50;;;;;;4993776;28;20141;-70
2021/06/20 11:14:18;;;;;;;3.08;1.17;;;31.00;46.10;;;;;;4994465;28;20029;-71
2021/06/20 11:16:49;;;;;;;2.53;1.10;;;30.70;45.80;;;;;;4979414;28;20022;-70
2021/06/20 11:19:28;;;;;;;6.13;1.25;;;30.40;45.60;;;;;;4987585;28;20026;-72
2021/06/20 11:21:56;;;;;;;4.60;0.90;;;30.10;46.70;;;;;;5002695;28;20034;-73
2021/06/20 11:24:24;;;;;;;6.72;1.58;;;30.10;47.60;;;;;;4998260;28;20121;-76
2021/06/20 11:27:05;;;;;;;3.65;1.30;;;30.00;48.30;;;;;;4978910;28;20042;-71
2021/06/20 11:29:38;;;;;;;4.53;1.70;;;29.90;48.50;;;;;;4976598;28;20037;-72
2021/06/20 11:32:05;;;;;;;3.05;1.63;;;29.90;49.70;;;;;;4993453;28;20018;-72
2021/06/20 11:34:31;;;;;;;3.25;1.80;;;29.90;48.90;;;;;;4993658;28;20071;-73
2021/06/20 11:36:57;;;;;;;3.30;1.48;;;29.90;49.60;;;;;;4993543;28;20091;-72
2021/06/20 11:39:23;;;;;;;7.97;1.55;;;30.00;50.00;;;;;;4993772;28;20046;-72
2021/06/20 11:41:53;;;;;;;5.93;1.70;;;30.00;50.00;;;;;;4994287;28;20113;-72
2021/06/20 11:44:20;;;;;;;3.40;1.60;;;29.90;50.60;;;;;;4993705;28;20138;-79
2021/06/20 11:46:47;;;;;;;5.18;1.40;;;29.90;50.50;;;;;;4993886;28;20112;-68
2021/06/20 11:49:18;;;;;;;2.80;1.38;;;29.90;50.50;;;;;;4975986;28;20044;-70
2021/06/20 11:51:54;;;;;;;3.75;1.20;;;29.80;50.30;;;;;;4993795;28;20031;-71
2021/06/20 11:54:20;;;;;;;3.83;1.30;;;29.90;50.40;;;;;;4993126;28;20471;-73
2021/06/20 11:56:53;;;;;;;2.72;1.20;;;29.80;50.40;;;;;;5004035;28;20018;-70
2021/06/20 11:59:30;;;;;;;7.63;1.17;;;29.90;50.20;;;;;;4978992;28;20447;-72
2021/06/20 12:01:57;;;;;;;3.15;1.08;;;29.80;49.40;;;;;;4992342;28;20026;-72
2021/06/20 12:04:29;;;;;;;10.02;5.13;;;29.80;49.70;;;;;;4993522;28;20034;-71
2021/06/20 12:06:56;;;;;;;4.03;1.20;;;29.80;49.10;;;;;;4977673;28;20030;-69
2021/06/20 12:09:23;;;;;;;4.93;1.20;;;29.60;49.70;;;;;;5002152;28;20035;-74
2021/06/20 12:12:01;;;;;;;7.22;1.30;;;29.50;50.10;;;;;;4979706;28;20065;-69
2021/06/20 12:14:29;;;;;;;5.43;1.35;;;29.40;50.50;;;;;;5001146;28;20050;-71
2021/06/20 12:16:55;;;;;;;3.22;1.10;;;29.30;49.20;;;;;;4978069;28;20025;-73
2021/06/20 12:19:24;;;;;;;5.90;1.50;;;29.20;48.70;;;;;;4997137;28;20027;-76
2021/06/20 12:22:02;;;;;;;11.18;5.15;;;29.10;48.40;;;;;;4996749;28;20018;-70
2021/06/20 12:24:39;;;;;;;16.02;10.23;;;29.10;48.60;;;;;;4997102;28;20019;-69
2021/06/20 12:27:05;;;;;;;3.80;1.20;;;29.10;49.20;;;;;;4979601;28;20117;-73
2021/06/20 12:29:33;;;;;;;3.20;1.10;;;29.10;49.90;;;;;;4997008;28;20037;-73
2021/06/20 12:32:17;;;;;;;6.53;1.27;;;29.20;50.00;;;;;;4979219;28;20150;-70
2021/06/20 12:34:49;;;;;;;4.22;1.10;;;29.20;49.70;;;;;;4996689;28;20042;-72
2021/06/20 12:37:19;;;;;;;4.38;1.40;;;29.30;49.70;;;;;;4979186;28;20023;-70
2021/06/20 12:39:52;;;;;;;4.90;1.50;;;29.30;49.70;;;;;;4979682;28;20138;-72
2021/06/20 12:42:20;;;;;;;5.90;1.30;;;29.30;50.20;;;;;;4996780;28;20456;-72
2021/06/20 12:44:55;;;;;;;5.60;1.10;;;29.30;50.70;;;;;;4995607;28;20508;-76
2021/06/20 12:47:35;;;;;;;2.95;1.30;;;29.30;50.00;;;;;;4996630;28;20019;-72
2021/06/20 12:50:02;;;;;;;3.63;1.35;;;29.30;50.90;;;;;;4979660;28;20034;-71